Charlottesville, VA

1:01 AM EST on December 29, 2014 (GMT -0500)
Hydraulic Wash Laundromat | Change Station
CLOSE
Current Station
Personal Weather Station
Location: Charlottesville, VA
Elevation: 548 ft
Nearby Weather Stations

Elev 548 ft 38.07 °N, 78.50 °W | Updated 51 seconds ago

Rain
Rain
47.0 °F
Feels Like 47 °F
N
3.0
Wind Variable Wind from East
Gusts 3.0 mph

Today
High -- | Low -- °F
--% Chance of Precip.
Yesterday
High -- | Low -- °F
Precip. -- in
7:29 AM 5:02 PM
First Quarter, 55% visible
Pressure 30.07 in
Visibility 9.0 miles
Clouds Few 900 ft
Mostly Cloudy 3400 ft
Overcast 6000 ft
Windchill 47 °F
Dew Point 45 °F
Humidity 93%
Rainfall 0.02 in
Snow Depth Not available.
UV 0.0 out of 12
Pollen .10 out of 12
Air Quality Not available.
Flu Activity Not available.
METAR KCHO 290553Z AUTO 04006KT 9SM -RA FEW009 BKN034 OVC060 08/07 A3008 RMK AO2 SLP183 P0001 60002 T00830067 10089 20083 50007

More Conditions Fewer Conditions

Pressure 30.07 in
Visibility 9.0 miles
Clouds Few 900 ft
Mostly Cloudy 3400 ft
Overcast 6000 ft
Windchill 47 °F
Dew Point 45 °F
Humidity 93%
Rainfall 0.02 in
Snow Depth Not available.
UV 0.0 out of 12
Pollen .10 out of 12
Air Quality Not available.
Flu Activity Not available.
METAR KCHO 290553Z AUTO 04006KT 9SM -RA FEW009 BKN034 OVC060 08/07 A3008 RMK AO2 SLP183 P0001 60002 T00830067 10089 20083 50007

More Conditions Fewer Conditions

10-Day Weather Forecast

Almanac

Astronomy

Dec. 29, 2014 Rise Set
Actual Time
Civil Twilight
Nautical Twilight
Astronomical Twilight
Moon
Length of Visible Light
Length of Day
Tomorrow will be .
, % of the Moon is Illuminated

Today's Extremes

State Highs State Lows

Community

WunderPhotos

Upload Photos

1,781,544 photos uploaded!

WunderBlogs® & News

Nearby

Air Quality

  Air Quality AQ Index Pollutant
Not available.

Snow Depth

Station Depth Elevation

Earthquake Activity

City Distance Mag. Time & Date
Minimum magnitude displayed is 2.5.

Coastal Water Temperatures

Place Temperature

Nearby Weather Stations